createdAt,value
2018-12-01T00:00:19.795Z,11.45
2018-12-01T00:02:48.718Z,12.45
2018-12-01T00:05:17.605Z,12.07
2018-12-01T00:07:46.572Z,13.55
2018-12-01T00:10:15.474Z,13.55
2018-12-01T00:12:44.414Z,12.55
2018-12-01T00:15:17.002Z,12.25
2018-12-01T00:17:45.908Z,12.82
2018-12-01T00:20:15.558Z,13.53
2018-12-01T00:22:44.545Z,14.78
2018-12-01T00:25:13.434Z,15.85
2018-12-01T00:27:42.753Z,15.18
2018-12-01T00:30:12.416Z,14.28
2018-12-01T00:32:41.417Z,14.63
2018-12-01T00:35:10.911Z,15.48
2018-12-01T00:37:40.176Z,16.05
2018-12-01T00:40:18.826Z,15.55
2018-12-01T00:42:47.900Z,14.73
2018-12-01T00:45:17.342Z,16.93
2018-12-01T00:47:46.754Z,15.58
2018-12-01T00:50:16.200Z,14.33
2018-12-01T00:52:45.326Z,15.23
2018-12-01T00:55:15.670Z,15.35
2018-12-01T00:57:44.602Z,15.30
2018-12-01T01:00:29.323Z,16.45
2018-12-01T01:02:59.926Z,15.35
2018-12-01T01:05:30.255Z,16.15
2018-12-01T01:07:59.970Z,15.20
2018-12-01T01:10:29.571Z,17.25
2018-12-01T01:12:58.533Z,15.38
2018-12-01T01:15:27.457Z,17.00
2018-12-01T01:17:56.425Z,15.38
2018-12-01T01:20:25.441Z,17.65
2018-12-01T01:22:54.341Z,16.32
2018-12-01T01:25:23.320Z,16.37
2018-12-01T01:27:53.080Z,16.15
2018-12-01T01:30:22.803Z,16.48
2018-12-01T01:32:52.342Z,16.95
2018-12-01T01:35:21.274Z,16.50
2018-12-01T01:37:50.155Z,16.97
2018-12-01T01:40:19.178Z,16.10
2018-12-01T01:42:48.100Z,15.68
2018-12-01T01:45:17.626Z,16.57
2018-12-01T01:47:46.689Z,16.77
2018-12-01T01:50:16.267Z,17.20
2018-12-01T01:52:45.222Z,19.37
2018-12-01T01:55:14.239Z,22.55
2018-12-01T01:57:43.175Z,27.07
2018-12-01T02:00:13.483Z,26.97
2018-12-01T02:02:43.336Z,26.48
2018-12-01T02:05:13.153Z,26.82
2018-12-01T02:07:42.135Z,28.47
2018-12-01T02:10:11.548Z,28.77
2018-12-01T02:12:40.562Z,31.57
2018-12-01T02:15:10.105Z,31.33
2018-12-01T02:17:52.241Z,33.42
2018-12-01T02:20:21.146Z,30.57
2018-12-01T02:22:50.058Z,31.42
2018-12-01T02:25:19.345Z,33.58
2018-12-01T02:27:48.246Z,30.55
2018-12-01T02:30:18.059Z,30.65
2018-12-01T02:32:47.118Z,30.72
2018-12-01T02:35:17.556Z,28.55
2018-12-01T02:37:46.818Z,28.65
2018-12-01T02:40:16.014Z,30.92
2018-12-01T02:42:44.920Z,29.55
2018-12-01T02:45:22.929Z,30.12
2018-12-01T02:47:52.233Z,30.37
2018-12-01T02:50:30.131Z,29.55
2018-12-01T02:52:59.554Z,31.60
2018-12-01T02:55:28.540Z,32.38
2018-12-01T02:57:57.566Z,39.03
2018-12-01T03:00:26.515Z,29.70
2018-12-01T03:02:55.450Z,31.12
2018-12-01T03:05:25.112Z,27.98
2018-12-01T03:07:54.285Z,28.23
2018-12-01T03:10:23.540Z,28.73
2018-12-01T03:12:53.322Z,29.27
2018-12-01T03:15:22.820Z,34.75
2018-12-01T03:17:52.210Z,34.15
2018-12-01T03:20:21.524Z,32.83
2018-12-01T03:22:50.730Z,31.10
2018-12-01T03:25:27.703Z,28.83
2018-12-01T03:27:56.635Z,28.12
2018-12-01T03:30:26.585Z,27.67
2018-12-01T03:32:56.002Z,24.55
2018-12-01T03:35:25.440Z,25.25
2018-12-01T03:37:54.744Z,24.32
2018-12-01T03:40:23.750Z,21.37
2018-12-01T03:42:53.132Z,20.88
2018-12-01T03:45:22.582Z,24.32
2018-12-01T03:47:51.664Z,20.60
2018-12-01T03:50:25.005Z,23.07
2018-12-01T03:52:54.682Z,22.45
2018-12-01T03:55:25.319Z,23.40
2018-12-01T03:57:54.331Z,23.73
2018-12-01T04:00:29.238Z,23.35
2018-12-01T04:02:58.681Z,25.82
2018-12-01T04:05:27.602Z,23.92
2018-12-01T04:07:56.525Z,26.27
2018-12-01T04:10:25.727Z,28.73
2018-12-01T04:12:55.149Z,27.52
2018-12-01T04:15:24.399Z,26.65
2018-12-01T04:17:53.594Z,30.30
2018-12-01T04:20:22.635Z,28.83
2018-12-01T04:22:51.828Z,27.62
2018-12-01T04:25:20.837Z,27.93
2018-12-01T04:27:49.781Z,26.50
2018-12-01T04:30:20.257Z,20.52
2018-12-01T04:32:49.812Z,17.02
2018-12-01T04:35:21.503Z,13.83
2018-12-01T04:37:51.911Z,13.85
2018-12-01T04:40:21.105Z,13.30
2018-12-01T04:42:50.274Z,12.45
2018-12-01T04:45:19.298Z,11.05
2018-12-01T04:47:48.262Z,11.73
2018-12-01T04:50:17.907Z,9.78
2018-12-01T04:52:48.426Z,10.00
2018-12-01T04:55:17.789Z,8.63
2018-12-01T04:57:46.713Z,8.70
2018-12-01T05:00:16.306Z,8.33
2018-12-01T05:02:45.202Z,6.60
2018-12-01T05:05:15.664Z,7.40
2018-12-01T05:07:44.574Z,7.22
2018-12-01T05:10:14.023Z,7.55
2018-12-01T05:12:43.079Z,6.72
2018-12-01T05:15:15.437Z,6.10
2018-12-01T05:17:44.602Z,6.40
2018-12-01T05:20:18.037Z,6.35
2018-12-01T05:22:47.070Z,6.83
2018-12-01T05:25:15.968Z,6.53
2018-12-01T05:27:44.878Z,6.87
2018-12-01T05:30:13.865Z,6.80
2018-12-01T05:32:42.827Z,5.08
2018-12-01T05:35:12.739Z,6.37
2018-12-01T05:37:41.714Z,5.12
2018-12-01T05:40:11.289Z,5.58
2018-12-01T05:42:40.204Z,6.12
2018-12-01T05:45:11.865Z,5.50
2018-12-01T05:47:40.773Z,5.58
2018-12-01T05:50:10.154Z,5.33
2018-12-01T05:52:39.126Z,5.20
2018-12-01T05:55:09.646Z,4.70
2018-12-01T05:57:38.638Z,5.92
2018-12-01T06:00:09.443Z,5.83
2018-12-01T06:02:38.474Z,5.22
2018-12-01T06:05:07.698Z,5.28
2018-12-01T06:07:36.665Z,5.83
2018-12-01T06:10:07.768Z,4.75
2018-12-01T06:12:37.941Z,5.10
2018-12-01T06:15:08.092Z,4.62
2018-12-01T06:17:37.017Z,5.15
2018-12-01T06:20:07.090Z,4.70
2018-12-01T06:22:36.082Z,4.00
2018-12-01T06:25:05.257Z,4.78
2018-12-01T06:27:34.163Z,5.17
2018-12-01T06:30:03.128Z,5.42
2018-12-01T06:32:32.112Z,4.42
2018-12-01T06:35:01.033Z,5.62
2018-12-01T06:37:30.546Z,5.22
2018-12-01T06:39:59.553Z,5.03
2018-12-01T06:42:28.451Z,4.83
2018-12-01T06:44:57.418Z,5.83
2018-12-01T06:47:26.376Z,5.67
2018-12-01T06:49:55.280Z,4.60
2018-12-01T06:52:24.257Z,4.97
2018-12-01T06:54:53.162Z,5.15
2018-12-01T06:57:22.075Z,5.70
2018-12-01T06:59:51.028Z,6.75
2018-12-01T07:02:20.002Z,6.90
2018-12-01T07:04:48.908Z,5.92
2018-12-01T07:07:17.884Z,6.17
2018-12-01T07:09:46.785Z,6.87
2018-12-01T07:12:16.667Z,5.22
2018-12-01T07:14:45.642Z,5.85
2018-12-01T07:17:14.574Z,6.20
2018-12-01T07:19:43.787Z,5.17
2018-12-01T07:22:12.783Z,6.08
2018-12-01T07:24:41.717Z,6.25
2018-12-01T07:27:10.664Z,5.47
2018-12-01T07:29:39.716Z,6.05
2018-12-01T07:32:08.621Z,5.20
2018-12-01T07:34:37.544Z,6.10
2018-12-01T07:37:06.583Z,5.47
2018-12-01T07:39:35.756Z,6.92
2018-12-01T07:42:04.681Z,5.05
2018-12-01T07:44:33.714Z,5.35
2018-12-01T07:47:03.802Z,4.95
2018-12-01T07:49:33.286Z,6.55
2018-12-01T07:52:02.270Z,4.03
2018-12-01T07:54:31.199Z,4.03
2018-12-01T07:57:00.097Z,3.95
2018-12-01T07:59:29.087Z,3.75
2018-12-01T08:01:57.998Z,4.08
2018-12-01T08:04:26.946Z,3.45
2018-12-01T08:06:55.903Z,3.83
2018-12-01T08:09:24.800Z,3.70
2018-12-01T08:11:53.718Z,4.35
2018-12-01T08:14:22.756Z,3.42
2018-12-01T08:16:51.699Z,4.08
2018-12-01T08:19:20.708Z,3.60
2018-12-01T08:21:49.808Z,3.58
2018-12-01T08:24:18.730Z,4.17
2018-12-01T08:26:48.131Z,3.42
2018-12-01T08:29:17.102Z,3.72
2018-12-01T08:31:46.045Z,4.08
2018-12-01T08:34:14.944Z,3.85
2018-12-01T08:36:43.907Z,3.33
2018-12-01T08:39:13.702Z,3.40
2018-12-01T08:41:43.211Z,3.05
2018-12-01T08:44:12.210Z,2.45
2018-12-01T08:46:41.181Z,3.20
2018-12-01T08:49:10.086Z,3.42
2018-12-01T08:51:39.083Z,3.45
2018-12-01T08:54:07.986Z,3.45
2018-12-01T08:56:36.924Z,3.47
2018-12-01T08:59:05.957Z,3.70
2018-12-01T09:01:34.886Z,3.15
2018-12-01T09:04:03.979Z,2.77
2018-12-01T09:06:32.950Z,2.80
2018-12-01T09:09:02.139Z,3.02
2018-12-01T09:11:31.064Z,2.77
2018-12-01T09:14:00.040Z,3.45
2018-12-01T09:16:28.945Z,4.15
2018-12-01T09:18:58.849Z,4.10
2018-12-01T09:21:27.848Z,3.67
2018-12-01T09:23:56.802Z,3.90
2018-12-01T09:26:25.707Z,3.90
2018-12-01T09:28:54.685Z,4.58
2018-12-01T09:31:23.626Z,4.22
2018-12-01T09:33:52.527Z,4.30
2018-12-01T09:36:21.541Z,4.03
2018-12-01T09:38:50.434Z,3.98
2018-12-01T09:41:19.336Z,3.87
2018-12-01T09:43:48.349Z,3.77
2018-12-01T09:46:17.283Z,3.52
2018-12-01T09:48:46.234Z,4.40
2018-12-01T09:51:15.218Z,2.72
2018-12-01T09:53:44.113Z,3.55
2018-12-01T09:56:13.038Z,3.90
2018-12-01T09:58:42.002Z,2.30
2018-12-01T10:01:10.887Z,2.95
2018-12-01T10:03:39.826Z,3.60
2018-12-01T10:06:08.807Z,3.25
2018-12-01T10:08:37.802Z,3.55
2018-12-01T10:11:06.719Z,2.95
2018-12-01T10:13:35.779Z,2.98
2018-12-01T10:16:04.753Z,2.50
2018-12-01T10:25:37.515Z,2.45
2018-12-01T10:28:06.955Z,3.02
2018-12-01T10:30:35.895Z,2.80
2018-12-01T10:33:04.941Z,3.50
2018-12-01T10:35:33.867Z,4.37
2018-12-01T10:38:05.112Z,3.20
2018-12-01T10:40:34.061Z,3.33
2018-12-01T10:43:03.057Z,3.72
2018-12-01T10:45:32.373Z,4.47
2018-12-01T10:48:01.321Z,3.22
2018-12-01T10:50:30.325Z,3.62
2018-12-01T10:52:59.374Z,4.22
2018-12-01T10:55:28.804Z,3.75
2018-12-01T10:58:00.281Z,3.83
2018-12-01T11:00:37.831Z,3.33
2018-12-01T11:03:11.346Z,4.05
2018-12-01T11:05:40.955Z,2.90
2018-12-01T11:08:10.331Z,3.60
2018-12-01T11:10:39.363Z,3.15
2018-12-01T11:13:08.854Z,3.42
2018-12-01T11:15:37.817Z,3.40
2018-12-01T11:18:06.819Z,3.20
2018-12-01T11:20:35.719Z,3.10
2018-12-01T11:23:04.667Z,3.30
2018-12-01T11:25:33.642Z,3.22
2018-12-01T11:28:02.603Z,2.77
2018-12-01T11:30:31.574Z,3.47
2018-12-01T11:33:00.573Z,3.12
2018-12-01T11:35:29.703Z,3.20
2018-12-01T11:37:58.765Z,3.60
2018-12-01T11:40:27.734Z,3.52
2018-12-01T11:42:56.650Z,4.00
2018-12-01T11:45:25.574Z,2.85
2018-12-01T11:47:54.657Z,3.02
2018-12-01T11:50:23.619Z,3.30
2018-12-01T11:52:52.522Z,3.67
2018-12-01T11:55:22.858Z,3.92
2018-12-01T11:57:52.305Z,3.10
2018-12-01T12:00:23.115Z,3.30
2018-12-01T12:02:52.120Z,3.17
2018-12-01T12:05:21.293Z,3.10
2018-12-01T12:07:56.465Z,3.22
2018-12-01T12:10:25.542Z,3.20
2018-12-01T12:12:55.217Z,2.85
2018-12-01T12:15:24.681Z,2.60
2018-12-01T12:17:55.250Z,2.85
2018-12-01T12:20:24.197Z,3.15
2018-12-01T12:22:53.239Z,2.60
2018-12-01T12:25:22.228Z,3.62
2018-12-01T12:27:51.280Z,3.27
2018-12-01T12:30:23.388Z,3.00
2018-12-01T12:32:50.508Z,3.80
2018-12-01T12:35:19.690Z,2.92
2018-12-01T12:37:48.714Z,3.05
2018-12-01T12:40:23.318Z,2.52
2018-12-01T12:42:52.902Z,3.35
2018-12-01T12:45:21.888Z,3.55
2018-12-01T12:47:50.933Z,4.30
2018-12-01T12:50:20.189Z,3.55
2018-12-01T12:52:49.745Z,3.75
2018-12-01T12:55:20.270Z,3.30
2018-12-01T12:58:01.540Z,3.55
2018-12-01T13:00:30.576Z,3.52
2018-12-01T13:03:00.949Z,2.42
2018-12-01T13:05:37.835Z,2.30
2018-12-01T13:08:07.277Z,2.90
2018-12-01T13:10:36.298Z,2.77
2018-12-01T13:13:05.882Z,2.90
2018-12-01T13:15:35.217Z,2.80
2018-12-01T13:18:04.185Z,2.27
2018-12-01T13:20:33.421Z,3.40
2018-12-01T13:23:02.422Z,3.58
2018-12-01T13:25:31.521Z,3.33
2018-12-01T13:28:03.462Z,4.20
2018-12-01T13:30:35.646Z,3.12
2018-12-01T13:33:04.660Z,3.30
2018-12-01T13:35:33.627Z,3.37
2018-12-01T13:38:02.576Z,2.90
2018-12-01T13:40:31.543Z,2.90
2018-12-01T13:43:00.561Z,2.90
2018-12-01T13:45:29.539Z,3.10
2018-12-01T13:47:58.763Z,3.27
2018-12-01T13:50:28.049Z,3.77
2018-12-01T13:52:57.682Z,3.20
2018-12-01T13:55:26.754Z,3.83
2018-12-01T13:57:55.701Z,4.65
2018-12-01T14:00:26.317Z,3.65
2018-12-01T14:02:55.575Z,3.98
2018-12-01T14:05:24.551Z,3.87
2018-12-01T14:07:53.559Z,3.70
2018-12-01T14:10:25.153Z,3.83
2018-12-01T14:12:54.961Z,3.98
2018-12-01T14:15:24.157Z,3.98
2018-12-01T14:17:53.263Z,4.08
2018-12-01T14:20:22.201Z,4.25
2018-12-01T14:22:51.362Z,4.62
2018-12-01T14:25:20.813Z,3.98
2018-12-01T14:27:57.138Z,4.03
2018-12-01T14:30:26.158Z,4.22
2018-12-01T14:32:55.163Z,3.77
2018-12-01T14:35:27.680Z,3.37
2018-12-01T14:37:57.581Z,5.33
2018-12-01T14:40:26.616Z,4.62
2018-12-01T14:42:55.618Z,3.70
2018-12-01T14:45:24.586Z,4.58
2018-12-01T14:47:53.595Z,3.92
2018-12-01T14:50:22.727Z,3.70
2018-12-01T14:52:51.810Z,4.05
2018-12-01T14:55:20.795Z,3.90
2018-12-01T14:57:50.308Z,4.15
2018-12-01T15:00:20.709Z,3.70
2018-12-01T15:02:50.078Z,4.20
2018-12-01T15:05:19.053Z,3.70
2018-12-01T15:07:48.334Z,3.50
2018-12-01T15:10:19.670Z,3.58
2018-12-01T15:12:48.640Z,3.87
2018-12-01T15:15:18.269Z,5.00
2018-12-01T15:17:47.262Z,3.12
2018-12-01T15:20:16.792Z,3.90
2018-12-01T15:22:46.301Z,3.40
2018-12-01T15:25:15.894Z,4.12
2018-12-01T15:27:44.878Z,4.50
2018-12-01T15:30:23.483Z,4.40
2018-12-01T15:32:59.240Z,4.83
2018-12-01T15:35:28.282Z,5.33
2018-12-01T15:37:57.262Z,5.28
2018-12-01T15:40:26.218Z,4.45
2018-12-01T15:42:55.230Z,5.45
2018-12-01T15:45:24.305Z,5.42
2018-12-01T15:47:54.182Z,3.25
2018-12-01T15:50:23.099Z,4.12
2018-12-01T15:52:53.936Z,4.35
2018-12-01T15:55:23.533Z,3.58
2018-12-01T15:57:52.546Z,3.08
2018-12-01T16:00:21.972Z,3.45
2018-12-01T16:02:50.994Z,4.40
2018-12-01T16:05:20.394Z,4.15
2018-12-01T16:07:49.966Z,4.05
2018-12-01T16:10:20.570Z,3.90
2018-12-01T16:12:50.224Z,4.33
2018-12-01T16:15:20.104Z,4.22
2018-12-01T16:17:49.109Z,4.15
2018-12-01T16:20:18.028Z,4.78
2018-12-01T16:22:47.054Z,5.70
2018-12-01T16:25:16.722Z,4.62
2018-12-01T16:27:46.091Z,4.45
2018-12-01T16:30:24.447Z,5.08
2018-12-01T16:33:00.778Z,4.47
2018-12-01T16:35:29.932Z,5.08
2018-12-01T16:37:58.847Z,5.70
2018-12-01T16:40:28.399Z,4.40
2018-12-01T16:42:57.975Z,4.62
2018-12-01T16:45:26.936Z,4.62
2018-12-01T16:47:55.938Z,4.70
2018-12-01T16:50:24.970Z,4.42
2018-12-01T16:52:53.938Z,5.37
2018-12-01T16:55:22.858Z,6.25
2018-12-01T16:57:51.889Z,4.90
2018-12-01T17:00:21.122Z,5.03
2018-12-01T17:02:50.750Z,5.25
2018-12-01T17:05:20.125Z,4.83
2018-12-01T17:07:49.282Z,4.33
2018-12-01T17:10:18.776Z,3.85
2018-12-01T17:12:48.432Z,3.85
2018-12-01T17:15:17.837Z,5.40
2018-12-01T17:17:47.001Z,4.42
2018-12-01T17:20:16.409Z,5.20
2018-12-01T17:22:52.577Z,4.75
2018-12-01T17:25:21.698Z,5.55
2018-12-01T17:27:51.122Z,5.28
2018-12-01T17:30:22.602Z,4.67
2018-12-01T17:32:51.870Z,4.75
2018-12-01T17:35:21.517Z,5.42
2018-12-01T17:37:51.331Z,4.97
2018-12-01T17:40:22.404Z,5.30
2018-12-01T17:42:52.368Z,5.80
2018-12-01T17:45:21.356Z,4.50
2018-12-01T17:47:50.341Z,3.85
2018-12-01T17:50:19.298Z,5.17
2018-12-01T17:52:49.072Z,4.40
2018-12-01T17:55:18.203Z,4.75
2018-12-01T17:57:47.414Z,4.85
2018-12-01T18:00:17.299Z,4.75
2018-12-01T18:02:46.191Z,4.97
2018-12-01T18:05:18.101Z,5.00
2018-12-01T18:07:47.030Z,4.50
2018-12-01T18:10:15.969Z,5.17
2018-12-01T18:12:45.128Z,4.75
2018-12-01T18:15:14.831Z,4.72
2018-12-01T18:17:43.718Z,5.08
2018-12-01T18:20:17.219Z,5.40
2018-12-01T18:22:47.674Z,5.05
2018-12-01T18:25:16.711Z,5.70
2018-12-01T18:27:45.906Z,5.62
2018-12-01T18:30:15.627Z,5.83
2018-12-01T18:32:44.666Z,6.70
2018-12-01T18:35:14.181Z,5.78
2018-12-01T18:37:42.713Z,6.03
2018-12-01T18:40:12.835Z,5.12
2018-12-01T18:42:41.758Z,6.22
2018-12-01T18:45:11.472Z,7.45
2018-12-01T18:47:40.462Z,7.25
2018-12-01T18:50:10.578Z,7.10
2018-12-01T18:52:39.498Z,5.83
2018-12-01T18:55:10.283Z,5.45
2018-12-01T18:57:39.299Z,4.62
2018-12-01T19:00:15.065Z,5.20
2018-12-01T19:02:44.553Z,5.62
2018-12-01T19:05:13.830Z,5.08
2018-12-01T19:07:42.826Z,4.90
2018-12-01T19:10:13.524Z,4.92
2018-12-01T19:12:42.571Z,5.87
2018-12-01T19:15:13.306Z,5.10
2018-12-01T19:17:42.860Z,5.53
2018-12-01T19:20:12.360Z,4.65
2018-12-01T19:22:41.402Z,5.65
2018-12-01T19:25:12.051Z,5.00
2018-12-01T19:27:41.033Z,5.53
2018-12-01T19:30:26.920Z,4.50
2018-12-01T19:32:58.498Z,5.03
2018-12-01T19:35:27.446Z,5.80
2018-12-01T19:37:56.464Z,6.15
2018-12-01T19:40:28.951Z,6.05
2018-12-01T19:42:58.265Z,5.75
2018-12-01T19:45:27.190Z,5.08
2018-12-01T19:47:56.245Z,5.58
2018-12-01T19:50:28.777Z,5.08
2018-12-01T19:52:57.785Z,4.80
2018-12-01T19:55:27.294Z,4.62
2018-12-01T19:57:56.345Z,5.95
2018-12-01T20:00:26.095Z,6.42
2018-12-01T20:02:55.223Z,6.60
2018-12-01T20:05:24.193Z,6.60
2018-12-01T20:07:53.322Z,5.35
2018-12-01T20:10:29.233Z,5.05
2018-12-01T20:12:59.090Z,4.80
2018-12-01T20:15:29.773Z,4.87
2018-12-01T20:17:59.369Z,4.33
2018-12-01T20:20:28.286Z,4.35
2018-12-01T20:22:57.190Z,4.62
2018-12-01T20:25:26.162Z,4.37
2018-12-01T20:27:55.102Z,4.75
2018-12-01T20:30:24.341Z,5.25
2018-12-01T20:32:53.362Z,5.53
2018-12-01T20:35:24.734Z,4.92
2018-12-01T20:37:56.075Z,5.22
2018-12-01T20:40:25.030Z,5.20
2018-12-01T20:42:53.923Z,5.62
2018-12-01T20:45:22.911Z,5.15
2018-12-01T20:47:51.819Z,5.30
2018-12-01T20:50:21.345Z,4.60
2018-12-01T20:52:50.316Z,5.05
2018-12-01T20:55:21.052Z,5.30
2018-12-01T20:57:52.891Z,4.75
2018-12-01T21:00:21.885Z,5.53
2018-12-01T21:02:50.776Z,5.85
2018-12-01T21:05:20.588Z,5.45
2018-12-01T21:07:49.511Z,5.37
2018-12-01T21:10:20.395Z,5.65
2018-12-01T21:12:49.304Z,5.35
2018-12-01T21:15:19.121Z,5.28
2018-12-01T21:17:48.112Z,5.05
2018-12-01T21:20:17.549Z,6.62
2018-12-01T21:22:47.216Z,5.83
2018-12-01T21:25:17.445Z,6.55
2018-12-01T21:27:46.522Z,6.17
2018-12-01T21:30:17.168Z,5.22
2018-12-01T21:32:46.583Z,5.80
2018-12-01T21:35:15.482Z,7.17
2018-12-01T21:37:44.477Z,5.30
2018-12-01T21:40:16.019Z,4.72
2018-12-01T21:42:45.037Z,5.30
2018-12-01T21:45:14.517Z,5.78
2018-12-01T21:47:43.430Z,5.97
2018-12-01T21:50:14.318Z,5.58
2018-12-01T21:52:44.149Z,5.17
2018-12-01T21:55:13.174Z,6.23
2018-12-01T21:57:42.860Z,6.58
2018-12-01T22:00:12.861Z,7.17
2018-12-01T22:02:41.853Z,6.70
2018-12-01T22:05:12.075Z,7.10
2018-12-01T22:07:41.270Z,6.17
2018-12-01T22:10:12.357Z,5.85
2018-12-01T22:12:41.611Z,7.30
2018-12-01T22:15:13.326Z,5.00
2018-12-01T22:17:42.668Z,5.10
2018-12-01T22:20:12.570Z,3.63
2018-12-01T22:22:41.689Z,4.00
2018-12-01T22:25:11.005Z,4.35
2018-12-01T22:27:39.971Z,4.85
2018-12-01T22:30:11.828Z,5.15
2018-12-01T22:32:40.734Z,5.03
2018-12-01T22:35:11.320Z,5.12
2018-12-01T22:37:40.275Z,5.15
2018-12-01T22:40:12.178Z,7.45
2018-12-01T22:42:41.500Z,6.03
2018-12-01T22:45:10.517Z,5.15
2018-12-01T22:47:39.435Z,5.67
2018-12-01T22:50:11.243Z,5.20
2018-12-01T22:52:40.417Z,6.17
2018-12-01T22:55:11.111Z,5.72
2018-12-01T22:57:40.490Z,5.83
2018-12-01T23:00:12.898Z,5.85
2018-12-01T23:02:41.870Z,6.03
2018-12-01T23:05:10.910Z,5.20
2018-12-01T23:07:40.161Z,5.40
2018-12-01T23:10:20.421Z,4.67
2018-12-01T23:12:49.561Z,5.47
2018-12-01T23:15:18.987Z,5.70
2018-12-01T23:17:48.469Z,5.13
2018-12-01T23:20:19.130Z,5.90
2018-12-01T23:22:48.379Z,6.40
2018-12-01T23:25:17.336Z,5.03
2018-12-01T23:27:46.333Z,5.13
2018-12-01T23:30:22.675Z,5.20
2018-12-01T23:32:59.958Z,5.27
2018-12-01T23:35:30.180Z,5.07
2018-12-01T23:38:11.867Z,5.13
2018-12-01T23:40:41.522Z,6.17
2018-12-01T23:43:10.776Z,7.00
2018-12-01T23:45:40.524Z,7.40
2018-12-01T23:48:09.662Z,6.57
2018-12-01T23:50:40.453Z,6.65
2018-12-01T23:53:10.985Z,6.53
2018-12-01T23:55:39.874Z,6.37
2018-12-01T23:58:08.906Z,7.10
